Time;durP1;ratioP1;P1;durP2;ratioP2;P2;SDS_P1;SDS_P2;PMS_P1;PMS_P2;Temp;Humidity;BMP_temperature;BMP_pressure;BME280_temperature;BME280_humidity;BME280_pressure;Samples;Min_cycle;Max_cycle;Signal;HPM_P1;HPM_P2
2022/08/04 00:00:26;;;;;;;;;4.60;4.60;;;;;27.42;43.74;100609.72;5062594;27;45450;-62
2022/08/04 00:03:01;;;;;;;;;3.80;1.40;;;;;27.38;43.94;100602.97;5096419;27;45504;-62
2022/08/04 00:05:54;;;;;;;;;3.00;2.20;;;;;27.37;44.05;100604.88;5075487;27;45437;-62
2022/08/04 00:08:19;;;;;;;;;1.60;1.60;;;;;27.33;44.13;100606.28;5097577;27;46271;-61
2022/08/04 00:10:49;;;;;;;;;1.50;1.50;;;;;27.29;44.32;100608.56;5097770;27;45467;-62
2022/08/04 00:13:20;;;;;;;;;1.60;1.60;;;;;27.27;43.97;100604.34;5097737;27;45244;-62
2022/08/04 00:15:49;;;;;;;;;3.40;1.60;;;;;27.24;44.69;100596.53;5097896;27;45464;-62
2022/08/04 00:18:18;;;;;;;;;3.40;3.40;;;;;27.23;44.05;100601.16;5078873;27;45338;-62
2022/08/04 00:20:44;;;;;;;;;1.60;1.60;;;;;27.26;44.09;100599.91;5096393;27;45379;-62
2022/08/04 00:23:10;;;;;;;;;1.00;1.00;;;;;27.26;44.44;100602.66;5097645;27;45472;-63
2022/08/04 00:25:40;;;;;;;;;2.50;2.50;;;;;27.19;43.95;100604.44;5097761;27;45387;-62
2022/08/04 00:28:05;;;;;;;;;1.00;1.00;;;;;27.16;44.53;100604.84;5078996;27;47481;-61
2022/08/04 00:30:31;;;;;;;;;1.00;1.00;;;;;27.14;44.79;100602.31;5096229;27;45565;-62
2022/08/04 00:32:59;;;;;;;;;1.80;1.00;;;;;27.08;44.91;100596.75;5097428;27;45294;-62
2022/08/04 00:35:27;;;;;;;;;1.40;1.40;;;;;27.12;44.42;100598.94;5097548;27;45446;-61
2022/08/04 00:37:54;;;;;;;;;3.00;1.40;;;;;27.08;44.74;100596.75;5078653;27;46502;-62
2022/08/04 00:40:37;;;;;;;;;2.00;2.00;;;;;26.99;45.12;100601.47;5097076;27;45443;-61
2022/08/04 00:43:20;;;;;;;;;1.00;1.00;;;;;26.92;45.34;100606.84;5095504;27;45393;-62
2022/08/04 00:46:24;;;;;;;;;1.20;1.20;;;;;26.89;44.83;100612.69;5097607;27;45488;-62
2022/08/04 00:49:01;;;;;;;;;1.00;1.00;;;;;26.84;45.09;100600.69;5078738;27;45389;-61
2022/08/04 00:51:43;;;;;;;;;1.20;1.20;;;;;26.86;45.43;100607.63;5096739;27;45493;-61
2022/08/04 00:54:32;;;;;;;;;3.80;2.40;;;;;26.75;46.19;100610.84;5096734;27;45211;-66
2022/08/04 00:57:10;;;;;;;;;2.60;2.60;;;;;26.69;46.16;100606.13;5078884;27;45492;-64
2022/08/04 00:59:56;;;;;;;;;1.60;1.60;;;;;26.69;45.86;100606.13;5095383;27;46741;-61
2022/08/04 01:02:28;;;;;;;;;3.40;2.00;;;;;26.75;45.44;100597.19;5097937;27;45366;-60
2022/08/04 01:05:12;;;;;;;;;4.80;3.00;;;;;26.81;45.83;100598.31;5093184;27;45338;-61
2022/08/04 01:08:09;;;;;;;;;2.00;2.00;;;;;26.81;46.00;100601.03;5097404;27;45467;-62
2022/08/04 01:10:44;;;;;;;;;1.00;1.00;;;;;26.77;45.89;100597.84;5095978;27;47336;-62
2022/08/04 01:13:28;;;;;;;;;4.20;2.20;;;;;26.72;46.60;100603.03;5096940;27;45353;-61
2022/08/04 01:16:00;;;;;;;;;2.20;2.20;;;;;26.64;46.97;100608.59;5096894;27;45307;-61
2022/08/04 01:18:41;;;;;;;;;2.00;2.00;;;;;26.63;47.31;100604.19;5077811;27;45820;-62
2022/08/04 01:21:43;;;;;;;;;3.00;1.80;;;;;26.55;47.05;100601.53;5095550;27;45328;-61
2022/08/04 01:24:32;;;;;;;;;2.00;2.00;;;;;26.46;47.48;100598.09;5078201;27;45473;-61
2022/08/04 01:27:04;;;;;;;;;6.00;2.60;;;;;26.50;47.70;100593.09;5078535;27;45267;-62
2022/08/04 01:29:34;;;;;;;;;3.00;3.00;;;;;26.43;48.28;100598.44;5077730;27;45278;-64
2022/08/04 01:32:06;;;;;;;;;2.50;2.50;;;;;26.31;47.83;100610.84;5096457;27;45497;-63
2022/08/04 01:34:41;;;;;;;;;4.00;2.40;;;;;26.17;48.39;100615.22;5096393;27;45345;-64
2022/08/04 01:37:18;;;;;;;;;5.00;2.60;;;;;26.07;48.74;100592.88;5078567;27;45319;-61
2022/08/04 01:39:49;;;;;;;;;2.75;2.75;;;;;26.10;48.48;100595.22;5078100;27;45287;-62
2022/08/04 01:42:19;;;;;;;;;3.00;3.00;;;;;26.08;48.39;100605.47;5093960;27;45410;-61
2022/08/04 01:44:46;;;;;;;;;4.20;2.60;;;;;26.06;48.40;100591.19;5096204;27;45362;-61
2022/08/04 01:47:15;;;;;;;;;4.20;2.00;;;;;26.10;48.95;100604.25;5096591;27;45318;-61
2022/08/04 01:49:46;;;;;;;;;3.75;2.25;;;;;26.04;48.77;100602.28;5096647;27;45483;-62
2022/08/04 01:52:16;;;;;;;;;3.00;3.00;;;;;26.05;48.58;100600.41;5095368;27;46285;-61
2022/08/04 01:54:42;;;;;;;;;3.40;2.00;;;;;26.05;48.47;100595.78;5077016;27;45366;-61
2022/08/04 01:57:10;;;;;;;;;2.00;2.00;;;;;25.98;48.77;100599.44;5096635;27;45294;-61
2022/08/04 01:59:38;;;;;;;;;3.00;2.00;;;;;25.94;49.28;100592.69;5097419;27;45574;-62
2022/08/04 02:02:06;;;;;;;;;3.00;3.00;;;;;25.87;49.64;100587.97;5099754;27;46150;-61
2022/08/04 02:04:34;;;;;;;;;5.40;3.40;;;;;25.82;49.73;100587.69;5099519;27;45259;-64
2022/08/04 02:07:15;;;;;;;;;3.00;1.80;;;;;25.79;49.48;100588.06;5098836;27;45535;-61
2022/08/04 02:10:27;;;;;;;;;2.00;2.00;;;;;25.76;49.77;100595.72;5100073;27;45310;-62
2022/08/04 02:13:29;;;;;;;;;2.50;2.25;;;;;25.62;50.44;100589.19;5077675;27;47022;-62
2022/08/04 02:16:01;;;;;;;;;2.00;2.00;;;;;25.56;50.33;100584.47;5099683;27;45486;-62
2022/08/04 02:18:30;;;;;;;;;4.00;2.60;;;;;25.57;50.30;100583.44;5098439;27;45184;-62
2022/08/04 02:20:59;;;;;;;;;4.75;2.75;;;;;25.52;50.69;100585.84;5098953;27;45332;-62
2022/08/04 02:23:36;;;;;;;;;4.25;4.00;;;;;25.46;50.35;100578.44;5098877;27;46073;-61
2022/08/04 02:26:12;;;;;;;;;3.25;3.25;;;;;25.42;50.72;100585.28;5099214;27;45436;-63
2022/08/04 02:29:02;;;;;;;;;3.00;3.00;;;;;25.41;50.45;100569.97;5099677;27;45279;-62
2022/08/04 02:31:28;;;;;;;;;4.00;2.75;;;;;25.48;50.40;100565.47;5098656;27;45317;-62
2022/08/04 02:34:13;;;;;;;;;3.00;2.75;;;;;25.46;50.35;100556.66;5098852;27;45500;-62
2022/08/04 02:36:40;;;;;;;;;4.80;2.80;;;;;25.43;50.54;100554.31;5099629;27;45419;-62
2022/08/04 02:39:09;;;;;;;;;1.00;1.00;;;;;25.35;51.12;100565.25;5081503;27;45460;-63
2022/08/04 02:41:36;;;;;;;;;2.75;2.75;;;;;25.28;51.16;100562.44;5099382;27;45557;-61
2022/08/04 02:44:04;;;;;;;;;3.50;3.00;;;;;25.21;50.81;100565.00;5095330;27;46237;-61
2022/08/04 02:46:31;;;;;;;;;3.25;3.25;;;;;25.26;50.99;100572.63;5098446;27;45246;-62
2022/08/04 02:49:00;;;;;;;;;5.80;3.20;;;;;25.20;51.26;100567.91;5098822;27;45341;-62
2022/08/04 02:51:32;;;;;;;;;6.75;2.75;;;;;25.16;51.10;100570.16;5097798;27;45652;-62
2022/08/04 02:54:01;;;;;;;;;3.00;3.00;;;;;25.12;51.51;100576.97;5098600;27;46330;-61
2022/08/04 02:56:29;;;;;;;;;5.25;3.75;;;;;25.11;51.44;100585.31;5098032;27;45294;-62
2022/08/04 02:59:07;;;;;;;;;3.00;2.25;;;;;24.96;51.39;100579.78;5080349;27;45569;-62
2022/08/04 03:01:33;;;;;;;;;3.75;2.75;;;;;24.94;51.37;100584.56;5099294;27;45417;-63
2022/08/04 03:04:34;;;;;;;;;6.25;3.00;;;;;25.03;51.12;100585.41;5098714;27;45453;-66
2022/08/04 03:07:21;;;;;;;;;4.75;3.50;;;;;25.05;51.55;100586.91;5078445;28;45517;-63
2022/08/04 03:09:55;;;;;;;;;3.00;3.00;;;;;25.08;51.47;100586.53;5077958;28;45230;-62
2022/08/04 03:12:31;;;;;;;;;2.00;2.00;;;;;25.07;51.33;100584.00;5077016;28;45592;-62
2022/08/04 03:15:24;;;;;;;;;3.75;2.75;;;;;25.08;50.74;100591.97;5077881;28;46066;-62
2022/08/04 03:18:24;;;;;;;;;3.80;2.40;;;;;25.02;51.50;100580.97;5091871;27;45284;-62
2022/08/04 03:21:22;;;;;;;;;3.40;2.00;;;;;25.01;50.93;100582.00;5063947;28;45493;-62
2022/08/04 03:23:53;;;;;;;;;3.00;3.00;;;;;25.02;51.16;100576.38;5059939;28;45378;-61
2022/08/04 03:26:39;;;;;;;;;3.50;2.75;;;;;25.08;51.19;100581.09;5077594;28;46153;-61
2022/08/04 03:29:17;;;;;;;;;2.50;2.50;;;;;25.10;50.82;100581.75;5085999;27;45366;-62
2022/08/04 03:32:13;;;;;;;;;2.80;1.40;;;;;25.06;51.29;100585.88;5098496;27;45393;-64
2022/08/04 03:35:06;;;;;;;;;3.00;3.00;;;;;25.07;50.82;100576.69;5098729;27;45517;-62
2022/08/04 03:38:09;;;;;;;;;2.00;2.00;;;;;25.09;51.17;100571.91;5097959;27;45421;-61
2022/08/04 03:41:25;;;;;;;;;3.75;2.50;;;;;25.04;51.66;100574.31;5097268;27;45503;-62
2022/08/04 03:44:45;;;;;;;;;2.00;2.00;;;;;25.12;51.21;100582.41;5098002;27;45432;-62
2022/08/04 03:47:26;;;;;;;;;3.00;3.00;;;;;25.01;52.48;100592.91;5038704;28;45390;-62
2022/08/04 03:50:11;;;;;;;;;2.50;2.00;;;;;24.88;52.12;100591.56;5093043;27;46242;-61
2022/08/04 03:53:07;;;;;;;;;2.40;1.20;;;;;24.91;52.06;100584.91;5097154;27;45515;-63
2022/08/04 03:56:09;;;;;;;;;3.00;3.00;;;;;24.96;51.34;100577.91;5097841;27;45495;-62
2022/08/04 03:58:47;;;;;;;;;3.00;3.00;;;;;24.88;51.86;100574.41;5096534;27;45372;-63
2022/08/04 04:01:43;;;;;;;;;1.75;1.75;;;;;24.75;52.01;100569.53;5098332;27;46073;-62
2022/08/04 04:04:29;;;;;;;;;3.20;2.00;;;;;24.72;51.98;100553.56;5096120;27;45402;-62
2022/08/04 04:07:10;;;;;;;;;3.00;3.00;;;;;24.78;51.81;100538.41;5058967;28;45378;-61
2022/08/04 04:10:08;;;;;;;;;2.00;2.00;;;;;24.82;51.74;100539.75;5077275;28;45265;-60
2022/08/04 04:12:58;;;;;;;;;4.00;1.50;;;;;24.86;51.31;100554.66;5075839;28;45400;-62
2022/08/04 04:16:01;;;;;;;;;3.00;2.00;;;;;24.77;51.89;100577.53;5059600;28;45410;-62
2022/08/04 04:18:38;;;;;;;;;2.50;2.50;;;;;24.77;51.54;100572.09;5077477;28;45461;-60
2022/08/04 04:21:26;;;;;;;;;3.50;3.50;;;;;24.85;51.91;100575.59;5077251;28;45397;-57
2022/08/04 04:24:05;;;;;;;;;4.00;4.00;;;;;24.71;52.08;100603.53;5076140;28;46487;-53
2022/08/04 04:26:47;;;;;;;;;3.00;3.00;;;;;24.69;52.17;100592.84;5076034;28;45448;-56
2022/08/04 04:29:28;;;;;;;;;2.00;2.00;;;;;24.76;52.12;100614.75;5089858;27;45358;-56
2022/08/04 04:32:18;;;;;;;;;3.00;3.00;;;;;24.80;51.57;100612.53;5097649;27;45157;-51
2022/08/04 04:35:10;;;;;;;;;4.00;2.50;;;;;24.61;51.99;100606.50;5097461;27;45329;-51
2022/08/04 04:37:45;;;;;;;;;2.00;2.00;;;;;24.63;51.61;100593.56;5095418;27;45363;-56
2022/08/04 04:40:27;;;;;;;;;2.75;2.00;;;;;24.66;51.82;100595.94;5097164;27;45348;-55
2022/08/04 04:43:11;;;;;;;;;2.75;2.75;;;;;24.76;51.31;100616.63;5097063;27;45347;-53
2022/08/04 04:46:01;;;;;;;;;1.75;1.75;;;;;24.78;51.41;100618.13;5096565;27;46749;-59
2022/08/04 04:48:37;;;;;;;;;3.60;2.00;;;;;24.67;51.73;100630.25;5096448;27;45346;-54
2022/08/04 04:51:11;;;;;;;;;4.00;2.50;;;;;24.51;52.91;100638.47;5096270;27;45440;-54
2022/08/04 04:53:55;;;;;;;;;2.75;2.75;;;;;24.58;54.71;100652.22;5097502;27;45519;-56
2022/08/04 04:56:29;;;;;;;;;3.00;1.75;;;;;24.55;55.04;100653.41;5096760;27;46499;-55
2022/08/04 04:58:56;;;;;;;;;3.00;3.00;;;;;24.63;53.96;100664.28;5092388;27;45468;-56
2022/08/04 05:01:57;;;;;;;;;3.50;3.50;;;;;24.68;53.42;100666.44;5078357;27;45434;-57
2022/08/04 05:04:32;;;;;;;;;4.00;4.00;;;;;24.62;54.37;100659.84;5038588;27;45351;-53
2022/08/04 05:07:21;;;;;;;;;5.50;2.50;;;;;24.44;55.01;100644.78;5077851;27;47028;-53
2022/08/04 05:10:24;;;;;;;;;3.50;3.25;;;;;24.31;54.67;100642.59;5069358;28;45301;-49
2022/08/04 05:13:08;;;;;;;;;3.25;3.00;;;;;24.31;54.28;100643.44;5076372;28;45293;-49
2022/08/04 05:15:36;;;;;;;;;3.25;2.00;;;;;24.31;54.11;100643.44;5081559;27;45369;-49
2022/08/04 05:18:06;;;;;;;;;4.00;2.00;;;;;24.20;54.51;100646.50;5096119;27;45398;-54
2022/08/04 05:20:40;;;;;;;;;4.00;4.00;;;;;24.11;55.80;100648.41;5094900;27;45391;-49
2022/08/04 05:23:16;;;;;;;;;7.00;5.00;;;;;24.00;57.54;100653.34;5095596;27;45318;-49
2022/08/04 05:25:55;;;;;;;;;3.75;3.75;;;;;23.91;56.40;100641.63;5097024;27;45292;-52
2022/08/04 05:28:26;;;;;;;;;7.00;4.75;;;;;23.87;57.62;100651.13;5095952;27;47418;-49
2022/08/04 05:31:12;;;;;;;;;7.50;4.75;;;;;23.86;57.77;100652.16;5096299;27;45335;-55
2022/08/04 05:33:40;;;;;;;;;4.25;3.00;;;;;23.85;56.47;100661.31;5096065;27;45157;-51
2022/08/04 05:36:10;;;;;;;;;3.00;3.00;;;;;23.87;56.09;100666.59;5100085;27;45378;-54
2022/08/04 05:38:39;;;;;;;;;4.00;4.00;;;;;23.97;56.24;100668.13;5099408;27;46515;-55
2022/08/04 05:41:07;;;;;;;;;4.25;3.00;;;;;23.97;55.73;100678.13;5099477;27;45426;-51
2022/08/04 05:43:34;;;;;;;;;9.25;4.00;;;;;23.93;55.53;100680.31;5099441;27;45346;-55
2022/08/04 05:46:01;;;;;;;;;2.75;2.75;;;;;23.80;55.84;100674.56;5099007;27;45291;-50
2022/08/04 05:48:29;;;;;;;;;7.50;5.00;;;;;23.72;56.13;100667.28;5099221;27;45479;-48
2022/08/04 05:50:55;;;;;;;;;3.00;3.00;;;;;23.63;55.70;100651.97;5081066;27;45414;-50
2022/08/04 05:53:22;;;;;;;;;6.75;6.75;;;;;23.70;55.61;100665.72;5099224;27;45572;-51
2022/08/04 05:55:49;;;;;;;;;4.50;4.50;;;;;23.79;55.28;100645.69;5100283;27;45459;-49
2022/08/04 05:58:17;;;;;;;;;4.50;4.50;;;;;23.97;54.50;100651.81;5099280;27;46385;-52
2022/08/04 06:00:44;;;;;;;;;4.50;3.00;;;;;24.04;54.17;100644.66;5099305;27;45357;-57
2022/08/04 06:03:11;;;;;;;;;4.75;4.00;;;;;24.00;54.55;100643.31;5101894;27;45627;-55
2022/08/04 06:05:38;;;;;;;;;5.00;4.00;;;;;23.96;54.04;100650.13;5099270;27;45590;-56
2022/08/04 06:08:05;;;;;;;;;5.25;5.25;;;;;23.89;54.09;100653.69;5080639;27;45414;-55
2022/08/04 06:10:33;;;;;;;;;4.50;4.50;;;;;23.96;54.42;100651.97;5099075;27;45268;-51
2022/08/04 06:13:04;;;;;;;;;7.75;7.00;;;;;23.95;54.19;100648.41;5098119;27;45313;-57
2022/08/04 06:15:31;;;;;;;;;7.00;4.75;;;;;24.03;53.89;100658.41;5099714;27;45286;-53
2022/08/04 06:18:02;;;;;;;;;6.00;4.25;;;;;24.07;53.50;100674.19;5099528;27;45789;-55
2022/08/04 06:20:33;;;;;;;;;4.25;3.00;;;;;23.97;53.01;100667.28;5098810;27;45349;-56
2022/08/04 06:23:05;;;;;;;;;3.75;3.50;;;;;23.89;53.75;100668.09;5098866;27;45543;-54
2022/08/04 06:25:33;;;;;;;;;7.00;6.00;;;;;23.93;54.04;100660.47;5094853;27;45584;-57
2022/08/04 06:28:02;;;;;;;;;5.50;4.75;;;;;23.89;53.44;100649.09;5098652;27;46441;-56
2022/08/04 06:30:31;;;;;;;;;4.75;3.50;;;;;23.80;54.04;100655.53;5079783;27;45295;-54
2022/08/04 06:32:59;;;;;;;;;5.00;4.00;;;;;23.82;53.96;100651.63;5099395;27;45284;-52
2022/08/04 06:35:27;;;;;;;;;3.75;3.75;;;;;23.86;54.37;100660.31;5098073;27;45539;-46
2022/08/04 06:37:55;;;;;;;;;4.50;3.50;;;;;23.87;54.20;100667.44;5098984;27;46089;-61
2022/08/04 06:40:23;;;;;;;;;4.50;4.00;;;;;23.87;54.08;100659.28;5098188;27;45238;-58
2022/08/04 06:42:50;;;;;;;;;6.00;5.00;;;;;23.95;53.51;100652.97;5097486;27;45251;-59
2022/08/04 06:45:17;;;;;;;;;5.00;5.00;;;;;23.97;53.92;100651.81;5098775;27;45390;-61
2022/08/04 06:47:43;;;;;;;;;4.25;2.75;;;;;24.01;53.22;100647.72;5098680;27;45451;-59
2022/08/04 06:50:10;;;;;;;;;4.75;4.75;;;;;24.20;53.08;100676.38;5098469;27;45318;-61
2022/08/04 06:52:37;;;;;;;;;3.75;3.75;;;;;24.29;52.68;100678.09;5098968;27;45458;-60
2022/08/04 06:55:05;;;;;;;;;4.00;4.00;;;;;24.37;51.80;100679.97;5098619;27;45541;-60
2022/08/04 06:57:32;;;;;;;;;2.75;2.50;;;;;24.45;51.77;100682.66;5098673;27;46440;-59
2022/08/04 07:00:03;;;;;;;;;3.75;3.75;;;;;24.59;52.00;100683.81;5080112;27;45334;-58
2022/08/04 07:02:33;;;;;;;;;5.00;3.50;;;;;24.71;51.66;100683.25;5098814;27;45304;-60
2022/08/04 07:04:59;;;;;;;;;5.75;4.00;;;;;24.78;51.82;100683.41;5092148;27;45458;-60
2022/08/04 07:07:25;;;;;;;;;4.50;4.50;;;;;24.85;51.22;100687.13;5094143;27;45428;-60
2022/08/04 07:09:51;;;;;;;;;4.25;4.25;;;;;25.04;51.00;100676.88;5098716;27;45360;-60
2022/08/04 07:12:20;;;;;;;;;7.00;5.00;;;;;25.13;50.32;100687.56;5080008;27;45272;-59
2022/08/04 07:14:46;;;;;;;;;4.75;4.75;;;;;25.22;50.07;100691.91;5098725;27;45390;-61
2022/08/04 07:17:14;;;;;;;;;5.00;3.00;;;;;25.26;49.80;100692.38;5098069;27;47903;-60
2022/08/04 07:19:40;;;;;;;;;2.75;2.75;;;;;25.38;50.03;100698.28;5097490;27;45439;-61
2022/08/04 07:22:07;;;;;;;;;5.25;3.75;;;;;25.44;49.76;100694.84;5080438;27;45304;-60
2022/08/04 07:24:34;;;;;;;;;3.75;3.25;;;;;25.45;49.80;100680.22;5063353;27;45266;-60
2022/08/04 07:27:02;;;;;;;;;5.25;5.00;;;;;25.52;49.42;100690.22;5098396;27;45569;-60
2022/08/04 07:29:28;;;;;;;;;36.75;18.25;;;;;25.57;49.45;100697.81;5097250;27;45523;-60
2022/08/04 07:31:56;;;;;;;;;4.00;4.00;;;;;25.57;49.26;100700.56;5098528;27;45279;-59
2022/08/04 07:34:23;;;;;;;;;4.00;3.00;;;;;25.56;49.15;100698.84;5098960;27;45469;-62
2022/08/04 07:36:52;;;;;;;;;3.75;3.75;;;;;25.61;49.25;100692.84;5098673;27;47446;-60
2022/08/04 07:39:18;;;;;;;;;3.00;3.00;;;;;25.73;49.24;100700.47;5097392;27;45467;-62
2022/08/04 07:41:44;;;;;;;;;4.75;3.00;;;;;25.73;49.23;100710.50;5080472;27;45456;-62
2022/08/04 07:44:12;;;;;;;;;4.50;3.00;;;;;25.59;49.19;100709.38;5098234;27;45426;-60
2022/08/04 07:46:38;;;;;;;;;4.25;2.75;;;;;25.66;49.15;100725.88;5097900;27;45710;-61
2022/08/04 07:49:04;;;;;;;;;4.00;1.00;;;;;25.70;49.17;100713.59;5097669;27;45280;-60
2022/08/04 07:51:31;;;;;;;;;0.00;0.00;;;;;25.58;49.93;100724.03;5097193;27;45296;-59
2022/08/04 07:53:57;;;;;;;;;4.00;2.00;;;;;25.55;50.35;100729.84;5098178;27;45806;-60
2022/08/04 07:56:25;;;;;;;;;3.25;2.25;;;;;25.56;49.62;100724.22;5097258;27;45320;-59
2022/08/04 07:58:50;;;;;;;;;3.00;3.00;;;;;25.49;49.71;100712.34;5096844;27;45368;-60
2022/08/04 08:01:18;;;;;;;;;3.25;3.25;;;;;25.47;49.98;100721.72;5097728;27;45310;-60
2022/08/04 08:03:44;;;;;;;;;1.00;1.00;;;;;25.48;50.06;100726.13;5097043;27;45322;-59
2022/08/04 08:06:10;;;;;;;;;3.25;3.00;;;;;25.48;50.01;100737.88;5078930;27;45441;-60
2022/08/04 08:08:39;;;;;;;;;3.00;3.00;;;;;25.45;49.78;100751.84;5097579;27;45562;-61
2022/08/04 08:11:06;;;;;;;;;1.40;1.00;;;;;25.47;49.67;100759.84;5096217;27;45368;-60
2022/08/04 08:13:32;;;;;;;;;2.00;2.00;;;;;25.42;49.85;100752.22;5097390;27;45294;-61
2022/08/04 08:15:59;;;;;;;;;1.75;1.75;;;;;25.40;50.08;100747.97;5096346;27;46397;-58
2022/08/04 08:18:24;;;;;;;;;3.20;3.00;;;;;25.37;50.53;100753.75;5097443;27;45166;-60
2022/08/04 08:20:51;;;;;;;;;2.25;1.00;;;;;25.24;50.62;100754.31;5097289;27;45296;-61
2022/08/04 08:23:17;;;;;;;;;4.25;4.25;;;;;25.21;51.08;100758.25;5097321;27;45431;-61
2022/08/04 08:25:43;;;;;;;;;4.00;4.00;;;;;25.06;51.28;100740.97;5078950;27;45836;-61
2022/08/04 08:28:09;;;;;;;;;5.50;4.50;;;;;25.07;52.11;100753.56;5077964;27;45509;-60
2022/08/04 08:30:35;;;;;;;;;8.25;4.25;;;;;25.08;52.55;100760.69;5097243;27;45331;-60
2022/08/04 08:33:04;;;;;;;;;7.00;4.00;;;;;25.14;51.95;100765.44;5095808;27;45543;-61
2022/08/04 08:35:38;;;;;;;;;8.00;5.00;;;;;25.21;52.86;100760.97;5096756;27;45339;-59
2022/08/04 08:38:05;;;;;;;;;3.20;3.20;;;;;25.32;53.51;100761.63;5097053;27;45343;-60
2022/08/04 08:40:57;;;;;;;;;2.75;2.75;;;;;25.18;53.29;100758.63;5096116;27;45527;-61
2022/08/04 08:43:43;;;;;;;;;2.50;2.50;;;;;25.10;53.79;100742.31;5092789;27;45570;-61
2022/08/04 08:46:36;;;;;;;;;3.25;3.00;;;;;25.15;53.44;100737.22;5096803;27;45365;-60
2022/08/04 08:49:32;;;;;;;;;3.00;2.60;;;;;25.26;52.69;100747.72;5095779;27;45640;-59
2022/08/04 08:52:26;;;;;;;;;1.75;1.75;;;;;25.35;52.52;100755.81;5097154;27;45585;-60
2022/08/04 08:55:26;;;;;;;;;3.00;3.00;;;;;25.34;52.82;100765.84;5079325;27;45818;-60
2022/08/04 08:58:00;;;;;;;;;14.50;2.00;;;;;25.38;52.30;100763.63;5097129;27;45557;-61
2022/08/04 09:01:08;;;;;;;;;4.00;3.00;;;;;25.48;52.55;100759.66;5097256;27;45429;-63
2022/08/04 09:03:43;;;;;;;;;4.00;3.00;;;;;25.66;52.15;100751.22;5057892;28;45402;-61
2022/08/04 09:06:34;;;;;;;;;3.25;3.25;;;;;25.53;52.41;100748.25;5093007;27;45428;-61
2022/08/04 09:09:12;;;;;;;;;3.50;3.50;;;;;25.54;52.18;100744.50;5067052;27;45419;-61
2022/08/04 09:11:54;;;;;;;;;4.60;3.20;;;;;25.62;52.23;100746.28;5096401;27;45327;-60
2022/08/04 09:14:27;;;;;;;;;5.00;4.25;;;;;25.61;51.58;100740.00;5095963;27;45413;-60
2022/08/04 09:17:02;;;;;;;;;2.50;2.50;;;;;25.76;51.43;100754.56;5097053;27;45396;-61
2022/08/04 09:20:02;;;;;;;;;2.00;2.00;;;;;25.85;51.30;100769.84;5096935;27;46090;-60
2022/08/04 09:22:42;;;;;;;;;2.40;2.40;;;;;26.05;50.77;100763.94;5096039;27;45386;-58
2022/08/04 09:25:17;;;;;;;;;3.60;3.60;;;;;26.25;50.27;100765.09;5096392;27;45258;-59
2022/08/04 09:27:50;;;;;;;;;1.20;1.00;;;;;26.30;50.66;100776.28;5096156;27;45633;-59
2022/08/04 09:30:22;;;;;;;;;3.00;2.00;;;;;26.10;51.03;100773.25;5096268;27;45249;-60
2022/08/04 09:32:48;;;;;;;;;1.60;1.60;;;;;26.21;50.74;100791.03;5096095;27;45410;-59
2022/08/04 09:35:23;;;;;;;;;2.50;1.00;;;;;26.27;49.91;100794.91;5095253;27;45255;-59
2022/08/04 09:38:25;;;;;;;;;2.50;2.00;;;;;26.21;50.74;100787.47;5095865;27;45481;-59
2022/08/04 09:41:06;;;;;;;;;2.00;2.00;;;;;26.03;51.25;100795.94;5095981;27;46305;-62
2022/08/04 09:43:54;;;;;;;;;2.60;2.60;;;;;26.09;51.61;100787.06;5096394;27;45350;-59
2022/08/04 09:46:38;;;;;;;;;4.20;3.20;;;;;26.26;50.97;100782.31;5096256;27;45180;-59
2022/08/04 09:49:26;;;;;;;;;1.00;1.00;;;;;26.47;50.48;100790.69;5095803;27;45408;-58
2022/08/04 09:51:54;;;;;;;;;1.50;1.50;;;;;26.66;50.59;100783.84;5075501;27;48299;-60
2022/08/04 09:54:37;;;;;;;;;3.00;1.20;;;;;26.92;49.64;100781.50;5096047;27;45365;-59
2022/08/04 09:57:22;;;;;;;;;2.60;2.60;;;;;27.11;49.04;100782.88;5096735;27;45327;-60
2022/08/04 09:59:50;;;;;;;;;4.25;3.00;;;;;27.34;48.79;100782.75;5096084;27;45468;-59
2022/08/04 10:02:20;;;;;;;;;2.00;2.00;;;;;27.41;47.92;100782.84;5095132;27;45467;-60
2022/08/04 10:04:48;;;;;;;;;3.00;2.00;;;;;27.41;48.86;100770.03;5090806;27;45331;-60
2022/08/04 10:07:41;;;;;;;;;2.40;2.00;;;;;27.52;47.38;100776.88;5075472;28;45372;-63
2022/08/04 10:10:13;;;;;;;;;1.60;1.60;;;;;27.25;48.29;100778.44;5075451;28;45390;-60
2022/08/04 10:13:08;;;;;;;;;1.00;1.00;;;;;27.15;48.74;100772.41;5075456;28;46264;-59
2022/08/04 10:15:59;;;;;;;;;3.60;3.00;;;;;27.29;49.38;100779.75;5078030;27;45298;-59
2022/08/04 10:18:44;;;;;;;;;3.00;1.60;;;;;27.41;49.13;100771.91;5077243;27;45467;-60
2022/08/04 10:21:44;;;;;;;;;3.80;2.60;;;;;27.37;48.82;100776.06;5097696;27;45547;-60
2022/08/04 10:24:31;;;;;;;;;1.00;1.00;;;;;27.18;49.26;100782.94;5098734;27;45346;-65
2022/08/04 10:27:06;;;;;;;;;0.60;0.60;;;;;27.05;49.76;100775.44;5097332;27;45476;-60
2022/08/04 10:29:31;;;;;;;;;1.60;1.60;;;;;26.90;50.10;100775.41;5099334;27;45334;-60
2022/08/04 10:32:13;;;;;;;;;5.00;3.75;;;;;26.92;49.81;100772.47;5099323;27;45298;-61
2022/08/04 10:34:47;;;;;;;;;1.60;1.60;;;;;27.06;49.97;100776.28;5098615;27;45556;-62
2022/08/04 10:37:23;;;;;;;;;0.80;0.80;;;;;27.19;49.42;100780.03;5098071;27;45375;-59
2022/08/04 10:42:56;;;;;;;;;3.60;2.00;;;;;27.32;48.66;100762.97;5099417;27;45228;-60
2022/08/04 10:45:45;;;;;;;;;1.00;1.00;;;;;27.44;48.79;100761.44;5080644;27;45536;-61
2022/08/04 10:48:39;;;;;;;;;2.00;1.00;;;;;27.37;48.63;100766.00;5035520;27;45347;-62
2022/08/04 10:51:16;;;;;;;;;3.00;1.80;;;;;27.40;48.15;100762.03;5077181;27;45291;-62
2022/08/04 10:53:45;;;;;;;;;3.00;2.00;;;;;27.45;48.24;100754.94;5099072;27;45306;-60
2022/08/04 10:56:33;;;;;;;;;1.00;1.00;;;;;27.34;48.34;100758.16;5099082;27;46272;-64
2022/08/04 10:59:05;;;;;;;;;0.20;0.20;;;;;27.25;48.59;100751.97;5098288;27;45433;-59
2022/08/04 11:01:39;;;;;;;;;0.40;0.40;;;;;27.45;48.18;100763.13;5078928;28;45453;-60
2022/08/04 11:04:13;;;;;;;;;0.40;0.40;;;;;27.49;47.93;100756.28;5090721;27;45540;-61
2022/08/04 11:06:39;;;;;;;;;2.00;2.00;;;;;27.60;48.28;100749.44;5095305;27;45545;-60
2022/08/04 11:09:05;;;;;;;;;10.75;7.75;;;;;27.69;47.87;100737.38;5099040;27;45236;-60
2022/08/04 11:11:38;;;;;;;;;3.00;1.60;;;;;27.49;48.11;100739.03;5097926;27;45405;-60
2022/08/04 11:14:10;;;;;;;;;1.00;1.00;;;;;27.45;48.54;100748.63;5079527;27;45482;-60
2022/08/04 11:16:41;;;;;;;;;3.00;1.40;;;;;27.55;48.16;100758.22;5079497;27;46152;-60
2022/08/04 11:19:41;;;;;;;;;1.00;1.00;;;;;27.46;48.42;100759.34;5098652;27;45416;-60
2022/08/04 11:22:21;;;;;;;;;1.80;1.80;;;;;27.43;48.25;100754.28;5098547;27;45244;-60
2022/08/04 11:25:21;;;;;;;;;4.00;2.20;;;;;27.63;47.66;100754.53;5098513;27;45421;-62
2022/08/04 11:28:12;;;;;;;;;1.00;0.80;;;;;27.74;47.35;100750.50;5097286;27;45416;-60
2022/08/04 11:30:56;;;;;;;;;1.00;1.00;;;;;27.85;47.41;100744.47;5097406;27;45374;-61
2022/08/04 11:33:42;;;;;;;;;2.60;2.60;;;;;27.89;46.91;100743.91;5098509;27;45373;-60
2022/08/04 11:36:38;;;;;;;;;5.80;4.20;;;;;27.91;47.35;100752.75;5097651;27;45334;-60
2022/08/04 11:39:23;;;;;;;;;5.20;4.00;;;;;28.05;46.96;100758.34;5097750;27;46259;-60
2022/08/04 11:42:13;;;;;;;;;4.00;4.00;;;;;28.16;47.02;100755.94;5097761;27;45374;-59
2022/08/04 11:44:48;;;;;;;;;4.60;4.20;;;;;28.35;46.35;100756.34;5097985;27;45362;-61
2022/08/04 11:47:38;;;;;;;;;3.20;3.20;;;;;28.49;45.59;100761.69;5098178;27;45373;-59
2022/08/04 11:50:28;;;;;;;;;5.40;5.00;;;;;28.51;45.76;100758.75;5096660;27;45628;-63
2022/08/04 11:52:55;;;;;;;;;6.00;6.00;;;;;28.51;45.34;100753.28;5097827;27;45282;-61
2022/08/04 11:55:24;;;;;;;;;3.00;3.00;;;;;28.58;45.84;100759.69;5098101;27;45892;-61
2022/08/04 11:57:50;;;;;;;;;3.00;3.00;;;;;28.67;45.56;100758.47;5098019;27;45447;-59
2022/08/04 12:00:18;;;;;;;;;3.00;3.00;;;;;28.70;45.59;100766.28;5097743;27;45397;-60
2022/08/04 12:02:59;;;;;;;;;6.40;3.60;;;;;28.74;45.40;100753.88;5097792;27;45274;-59
2022/08/04 12:05:31;;;;;;;;;3.00;3.00;;;;;28.89;45.01;100750.22;5087797;27;45342;-60
2022/08/04 12:07:57;;;;;;;;;7.20;4.00;;;;;28.92;45.72;100758.03;5042394;28;45316;-59
2022/08/04 12:10:44;;;;;;;;;5.60;3.20;;;;;29.09;45.20;100762.13;5076519;28;46501;-60